Time;durP1;ratioP1;P1;durP2;ratioP2;P2;SDS_P1;SDS_P2;PMS_P1;PMS_P2;Temp;Humidity;BMP_temperature;BMP_pressure;BME280_temperature;BME280_humidity;BME280_pressure;Samples;Min_cycle;Max_cycle;Signal;HPM_P1;HPM_P2
2023/05/30 00:01:14;;;;;;;6.03;4.38;;;;;;;;;;4978228;28;20023;-80
2023/05/30 00:03:44;;;;;;;8.73;5.30;;;;;;;;;;4973333;28;20035;-82
2023/05/30 00:06:13;;;;;;;9.95;4.93;;;;;;;;;;4970562;28;20018;-81
2023/05/30 00:08:39;;;;;;;6.38;4.32;;;;;;;;;;4978567;28;20034;-81
2023/05/30 00:11:05;;;;;;;6.35;4.03;;;;;;;;;;4973883;28;20038;-81
2023/05/30 00:13:32;;;;;;;7.40;4.63;;;;;;;;;;4978092;28;20031;-81
2023/05/30 00:15:58;;;;;;;5.75;4.07;;;;;;;;;;4977629;28;20045;-80
2023/05/30 00:18:23;;;;;;;11.05;5.72;;;;;;;;;;4977678;28;20039;-81
2023/05/30 00:20:49;;;;;;;7.90;4.50;;;;;;;;;;4978327;28;20057;-80
2023/05/30 00:23:15;;;;;;;7.55;4.30;;;;;;;;;;4977321;28;20030;-82
2023/05/30 00:25:40;;;;;;;10.02;4.85;;;;;;;;;;4978354;28;20117;-81
2023/05/30 00:28:07;;;;;;;5.28;4.45;;;;;;;;;;4969351;28;20126;-81
2023/05/30 00:30:33;;;;;;;6.68;4.45;;;;;;;;;;4978063;28;20054;-82
2023/05/30 00:32:59;;;;;;;6.70;4.72;;;;;;;;;;4976139;28;20091;-81
2023/05/30 00:35:24;;;;;;;12.02;4.60;;;;;;;;;;4977383;28;20192;-79
2023/05/30 00:37:50;;;;;;;12.30;4.68;;;;;;;;;;4977889;28;20188;-81
2023/05/30 00:40:15;;;;;;;5.60;4.22;;;;;;;;;;4973559;28;20409;-82
2023/05/30 00:42:40;;;;;;;8.43;4.88;;;;;;;;;;4979031;28;20081;-80
2023/05/30 00:45:06;;;;;;;9.10;5.25;;;;;;;;;;4978396;28;20664;-82
2023/05/30 00:47:32;;;;;;;7.75;4.45;;;;;;;;;;4978033;28;20023;-81
2023/05/30 00:49:58;;;;;;;8.50;4.95;;;;;;;;;;4977145;28;20223;-80
2023/05/30 00:52:23;;;;;;;6.10;4.30;;;;;;;;;;4976909;28;20023;-81
2023/05/30 00:54:50;;;;;;;6.15;4.65;;;;;;;;;;4978292;28;20039;-82
2023/05/30 00:57:16;;;;;;;10.63;4.43;;;;;;;;;;4977338;28;20422;-80
2023/05/30 00:59:42;;;;;;;6.93;4.40;;;;;;;;;;4981060;28;20061;-79
2023/05/30 01:02:08;;;;;;;11.23;5.00;;;;;;;;;;4977562;28;20531;-80
2023/05/30 01:04:34;;;;;;;6.28;5.20;;;;;;;;;;4974745;28;20059;-81
2023/05/30 01:06:59;;;;;;;9.40;5.50;;;;;;;;;;4978626;28;20049;-81
2023/05/30 01:09:25;;;;;;;8.80;5.40;;;;;;;;;;4975874;28;20050;-78
2023/05/30 01:12:01;;;;;;;12.77;4.45;;;;;;;;;;4979248;28;20023;-82
2023/05/30 01:14:46;;;;;;;10.50;4.85;;;;;;;;;;4981519;28;20039;-82
2023/05/30 01:17:54;;;;;;;8.45;4.07;;;;;;;;;;4970533;28;20046;-81
2023/05/30 01:20:22;;;;;;;6.53;4.60;;;;;;;;;;4960578;28;20379;-83
2023/05/30 01:23:30;;;;;;;8.20;4.95;;;;;;;;;;4980162;28;20031;-81
2023/05/30 01:26:31;;;;;;;7.68;4.53;;;;;;;;;;4974600;28;20042;-80
2023/05/30 01:28:58;;;;;;;9.02;4.38;;;;;;;;;;4980232;28;20529;-82
2023/05/30 01:31:24;;;;;;;8.43;4.40;;;;;;;;;;4981095;28;20043;-81
2023/05/30 01:33:51;;;;;;;8.77;4.75;;;;;;;;;;4980510;28;20405;-81
2023/05/30 01:36:17;;;;;;;12.13;4.93;;;;;;;;;;4979325;28;20074;-81
2023/05/30 01:38:42;;;;;;;12.65;4.75;;;;;;;;;;4982185;28;20193;-79
2023/05/30 01:41:20;;;;;;;11.35;5.18;;;;;;;;;;4975586;28;20051;-82
2023/05/30 01:44:02;;;;;;;9.88;5.38;;;;;;;;;;4972214;28;20032;-82
2023/05/30 01:46:32;;;;;;;13.15;5.15;;;;;;;;;;4975308;28;20038;-83
2023/05/30 01:49:15;;;;;;;8.23;4.97;;;;;;;;;;4980710;28;20046;-81
2023/05/30 01:51:58;;;;;;;9.10;4.80;;;;;;;;;;4979838;28;20046;-79
2023/05/30 01:54:24;;;;;;;5.97;4.70;;;;;;;;;;4975138;28;20051;-82
2023/05/30 01:57:06;;;;;;;7.22;4.65;;;;;;;;;;4979124;28;20034;-83
2023/05/30 01:59:31;;;;;;;10.98;4.95;;;;;;;;;;4981124;28;20066;-81
2023/05/30 02:01:59;;;;;;;7.93;4.65;;;;;;;;;;4980487;28;20038;-80
2023/05/30 02:04:25;;;;;;;12.15;6.00;;;;;;;;;;4981039;28;20049;-81
2023/05/30 02:06:50;;;;;;;10.15;5.38;;;;;;;;;;4980126;28;20071;-81
2023/05/30 02:09:16;;;;;;;9.77;5.32;;;;;;;;;;4978428;28;20162;-82
2023/05/30 02:11:42;;;;;;;14.00;5.65;;;;;;;;;;4977743;28;20072;-81
2023/05/30 02:14:07;;;;;;;7.65;4.53;;;;;;;;;;4969615;28;20027;-81
2023/05/30 02:16:35;;;;;;;8.35;4.80;;;;;;;;;;4963331;28;20032;-81
2023/05/30 02:19:00;;;;;;;12.73;5.00;;;;;;;;;;4980745;28;20065;-81
2023/05/30 02:21:26;;;;;;;7.00;4.50;;;;;;;;;;4980719;28;20039;-81
2023/05/30 02:23:51;;;;;;;8.55;5.13;;;;;;;;;;4981365;28;20024;-81
2023/05/30 02:26:16;;;;;;;9.68;5.30;;;;;;;;;;4980319;28;20030;-80
2023/05/30 02:28:42;;;;;;;9.15;5.47;;;;;;;;;;4978646;28;20493;-82
2023/05/30 02:31:07;;;;;;;7.57;5.20;;;;;;;;;;4972018;28;20053;-81
2023/05/30 02:33:33;;;;;;;9.45;5.95;;;;;;;;;;4980224;28;20093;-80
2023/05/30 02:35:58;;;;;;;11.05;5.15;;;;;;;;;;4979009;28;20035;-81
2023/05/30 02:38:23;;;;;;;11.20;5.25;;;;;;;;;;4979702;28;20061;-81
2023/05/30 02:40:48;;;;;;;9.60;6.05;;;;;;;;;;4974885;28;20035;-80
2023/05/30 02:43:14;;;;;;;8.75;5.60;;;;;;;;;;4977587;28;20027;-82
2023/05/30 02:45:39;;;;;;;7.65;5.15;;;;;;;;;;4967888;28;20041;-79
2023/05/30 02:48:05;;;;;;;13.18;6.05;;;;;;;;;;4978495;28;20030;-80
2023/05/30 02:50:31;;;;;;;10.52;5.53;;;;;;;;;;4980306;28;20034;-81
2023/05/30 02:52:56;;;;;;;7.68;5.47;;;;;;;;;;4972378;28;20043;-79
2023/05/30 02:55:21;;;;;;;11.50;5.25;;;;;;;;;;4979087;28;20114;-81
2023/05/30 02:57:47;;;;;;;9.48;5.47;;;;;;;;;;4976800;28;20039;-80
2023/05/30 03:00:13;;;;;;;11.93;5.40;;;;;;;;;;4978068;28;20023;-80
2023/05/30 03:02:39;;;;;;;8.55;5.15;;;;;;;;;;4979206;28;20113;-80
2023/05/30 03:05:05;;;;;;;12.80;6.28;;;;;;;;;;4978319;28;20031;-80
2023/05/30 03:07:32;;;;;;;9.75;5.40;;;;;;;;;;4977592;28;20098;-81
2023/05/30 03:09:57;;;;;;;12.52;5.68;;;;;;;;;;4973236;28;20096;-81
2023/05/30 03:12:22;;;;;;;8.00;5.25;;;;;;;;;;4977194;28;20520;-80
2023/05/30 03:14:48;;;;;;;7.90;5.38;;;;;;;;;;4977781;28;20031;-81
2023/05/30 03:17:15;;;;;;;9.95;5.20;;;;;;;;;;4978043;28;20034;-81
2023/05/30 03:19:41;;;;;;;15.35;5.85;;;;;;;;;;4978251;28;20051;-81
2023/05/30 03:22:07;;;;;;;10.18;5.35;;;;;;;;;;4974543;28;20062;-82
2023/05/30 03:24:33;;;;;;;9.57;5.57;;;;;;;;;;4976990;28;20049;-81
2023/05/30 03:26:58;;;;;;;5.55;4.55;;;;;;;;;;4975854;28;20058;-81
2023/05/30 03:29:23;;;;;;;8.38;5.53;;;;;;;;;;4976005;28;20043;-80
2023/05/30 03:31:48;;;;;;;11.30;5.13;;;;;;;;;;4975596;28;20074;-82
2023/05/30 03:34:14;;;;;;;9.65;5.53;;;;;;;;;;4975940;28;20030;-81
2023/05/30 03:36:40;;;;;;;11.75;5.97;;;;;;;;;;4976113;28;20046;-82
2023/05/30 03:39:06;;;;;;;12.98;5.95;;;;;;;;;;4976450;28;20034;-80
2023/05/30 03:41:31;;;;;;;8.65;5.18;;;;;;;;;;4970242;28;20027;-82
2023/05/30 03:43:56;;;;;;;9.43;5.30;;;;;;;;;;4974816;28;20043;-81
2023/05/30 03:46:22;;;;;;;11.70;5.50;;;;;;;;;;4976837;28;20101;-82
2023/05/30 03:48:47;;;;;;;6.80;5.03;;;;;;;;;;4974706;28;20053;-81
2023/05/30 03:51:13;;;;;;;10.40;5.63;;;;;;;;;;4974312;28;20378;-83
2023/05/30 03:53:38;;;;;;;8.43;5.70;;;;;;;;;;4976387;28;20088;-83
2023/05/30 03:56:05;;;;;;;9.02;5.00;;;;;;;;;;4972408;28;20084;-81
2023/05/30 03:58:30;;;;;;;7.93;5.10;;;;;;;;;;4973539;28;20405;-82
2023/05/30 04:00:56;;;;;;;7.57;5.30;;;;;;;;;;4972402;28;20058;-82
2023/05/30 04:03:21;;;;;;;6.78;5.05;;;;;;;;;;4972145;28;20034;-81
2023/05/30 04:05:48;;;;;;;9.23;5.68;;;;;;;;;;4974892;28;20026;-83
2023/05/30 04:08:14;;;;;;;7.38;5.13;;;;;;;;;;4974569;28;20041;-82
2023/05/30 04:10:40;;;;;;;9.88;5.88;;;;;;;;;;4972831;28;20058;-81
2023/05/30 04:13:05;;;;;;;10.20;5.90;;;;;;;;;;4973963;28;20078;-83
2023/05/30 04:15:31;;;;;;;8.20;5.72;;;;;;;;;;4971691;28;20038;-81
2023/05/30 04:17:57;;;;;;;11.90;5.85;;;;;;;;;;4973892;28;20519;-80
2023/05/30 04:20:23;;;;;;;8.82;5.57;;;;;;;;;;4974439;28;20044;-81
2023/05/30 04:22:49;;;;;;;11.85;6.45;;;;;;;;;;4972619;28;20038;-83
2023/05/30 04:25:16;;;;;;;7.20;5.63;;;;;;;;;;4976387;28;20394;-81
2023/05/30 04:27:43;;;;;;;7.90;5.28;;;;;;;;;;4976163;28;20038;-83
2023/05/30 04:30:09;;;;;;;12.02;6.07;;;;;;;;;;4972754;28;20027;-81
2023/05/30 04:32:35;;;;;;;8.38;6.07;;;;;;;;;;4974608;28;20034;-82
2023/05/30 04:35:02;;;;;;;16.10;6.40;;;;;;;;;;4967816;28;20114;-82
2023/05/30 04:37:27;;;;;;;14.70;6.22;;;;;;;;;;4975498;28;20058;-79
2023/05/30 04:39:55;;;;;;;11.57;5.65;;;;;;;;;;4966539;28;20591;-83
2023/05/30 04:42:23;;;;;;;11.30;5.43;;;;;;;;;;4973806;28;20078;-80
2023/05/30 04:44:49;;;;;;;8.20;5.43;;;;;;;;;;4971207;28;20023;-82
2023/05/30 04:47:15;;;;;;;11.07;6.15;;;;;;;;;;4975479;28;20046;-82
2023/05/30 04:49:41;;;;;;;9.43;4.47;;;;;;;;;;4979030;28;20126;-81
2023/05/30 04:52:07;;;;;;;9.55;5.22;;;;;;;;;;4978693;28;20042;-80
2023/05/30 04:54:32;;;;;;;10.52;5.03;;;;;;;;;;4978004;28;20042;-81
2023/05/30 04:56:58;;;;;;;6.85;4.90;;;;;;;;;;4977022;28;20424;-81
2023/05/30 04:59:23;;;;;;;7.30;5.00;;;;;;;;;;4976032;28;20047;-82
2023/05/30 05:01:49;;;;;;;6.55;4.80;;;;;;;;;;4976834;28;20053;-81
2023/05/30 05:04:14;;;;;;;9.35;5.60;;;;;;;;;;4976111;28;20525;-83
2023/05/30 05:06:39;;;;;;;7.50;5.25;;;;;;;;;;4978949;28;20043;-82
2023/05/30 05:09:05;;;;;;;6.28;4.75;;;;;;;;;;4976194;28;20038;-82
2023/05/30 05:11:30;;;;;;;10.30;4.82;;;;;;;;;;4978564;28;20031;-82
2023/05/30 05:13:55;;;;;;;8.10;5.35;;;;;;;;;;4978141;28;20421;-81
2023/05/30 05:16:20;;;;;;;7.10;4.60;;;;;;;;;;4979298;28;20035;-82
2023/05/30 05:18:46;;;;;;;7.85;4.93;;;;;;;;;;4977339;28;20652;-81
2023/05/30 05:21:11;;;;;;;14.48;5.40;;;;;;;;;;4969001;28;20042;-80
2023/05/30 05:23:36;;;;;;;7.93;4.75;;;;;;;;;;4976898;28;20045;-82
2023/05/30 05:26:02;;;;;;;10.90;5.20;;;;;;;;;;4977373;28;20540;-81
2023/05/30 05:28:27;;;;;;;6.82;4.75;;;;;;;;;;4975834;28;20045;-83
2023/05/30 05:30:53;;;;;;;9.63;5.10;;;;;;;;;;4977031;28;20039;-83
2023/05/30 05:33:19;;;;;;;8.55;5.03;;;;;;;;;;4976931;28;20428;-82
2023/05/30 05:35:48;;;;;;;9.27;4.70;;;;;;;;;;4976265;28;20030;-81
2023/05/30 05:38:14;;;;;;;6.28;4.53;;;;;;;;;;4974267;28;20035;-81
2023/05/30 05:40:40;;;;;;;9.00;4.93;;;;;;;;;;4977345;28;20095;-79
2023/05/30 05:43:05;;;;;;;13.65;4.78;;;;;;;;;;4976081;28;20047;-82
2023/05/30 05:45:31;;;;;;;5.80;4.85;;;;;;;;;;4974742;28;20031;-80
2023/05/30 05:47:56;;;;;;;9.85;4.80;;;;;;;;;;4964829;28;20070;-81
2023/05/30 05:50:21;;;;;;;9.48;4.75;;;;;;;;;;4976799;28;20035;-81
2023/05/30 05:52:47;;;;;;;7.10;4.25;;;;;;;;;;4976287;28;20039;-81
2023/05/30 05:55:12;;;;;;;6.88;4.00;;;;;;;;;;4975817;28;20031;-80
2023/05/30 05:57:37;;;;;;;8.45;4.88;;;;;;;;;;4972908;28;20098;-80
2023/05/30 06:00:05;;;;;;;9.23;4.55;;;;;;;;;;4974775;28;20029;-80
2023/05/30 06:02:31;;;;;;;6.53;4.95;;;;;;;;;;4975348;28;20054;-79
2023/05/30 06:04:56;;;;;;;8.52;5.07;;;;;;;;;;4974245;28;20042;-81
2023/05/30 06:07:21;;;;;;;6.50;4.20;;;;;;;;;;4973300;28;20043;-78
2023/05/30 06:09:47;;;;;;;8.15;3.83;;;;;;;;;;4973553;28;20491;-83
2023/05/30 06:12:12;;;;;;;7.45;3.90;;;;;;;;;;4979873;28;20504;-81
2023/05/30 06:14:37;;;;;;;5.90;4.03;;;;;;;;;;4985686;28;20026;-82
2023/05/30 06:17:04;;;;;;;4.57;4.10;;;;;;;;;;4977059;28;20038;-80
2023/05/30 06:19:30;;;;;;;8.43;5.40;;;;;;;;;;4970285;28;20045;-82
2023/05/30 06:21:55;;;;;;;6.90;4.30;;;;;;;;;;4969333;28;20035;-81
2023/05/30 06:24:20;;;;;;;7.05;4.13;;;;;;;;;;4974174;28;20055;-79
2023/05/30 06:26:46;;;;;;;9.88;4.47;;;;;;;;;;4975428;28;20022;-80
2023/05/30 06:29:11;;;;;;;6.97;4.10;;;;;;;;;;4977964;28;20101;-82
2023/05/30 06:31:36;;;;;;;6.35;3.90;;;;;;;;;;4975999;28;20117;-83
2023/05/30 06:34:02;;;;;;;6.43;4.45;;;;;;;;;;4975102;28;20039;-82
2023/05/30 06:36:27;;;;;;;4.88;4.00;;;;;;;;;;4977566;28;20042;-81
2023/05/30 06:38:53;;;;;;;9.82;5.00;;;;;;;;;;4975949;28;20027;-82
2023/05/30 06:41:18;;;;;;;10.50;4.50;;;;;;;;;;4975147;28;20026;-82
2023/05/30 06:43:43;;;;;;;5.25;4.10;;;;;;;;;;4977461;28;20027;-80
2023/05/30 06:46:09;;;;;;;4.95;4.15;;;;;;;;;;4978456;28;20066;-82
2023/05/30 06:48:34;;;;;;;7.53;4.40;;;;;;;;;;4976405;28;20498;-81
2023/05/30 06:50:59;;;;;;;6.70;4.55;;;;;;;;;;4978887;28;20129;-82
2023/05/30 06:53:25;;;;;;;11.90;4.85;;;;;;;;;;4977498;28;20039;-81
2023/05/30 06:55:50;;;;;;;13.88;4.63;;;;;;;;;;4972761;28;20035;-80
2023/05/30 06:58:17;;;;;;;6.03;4.40;;;;;;;;;;4977014;28;20101;-82
2023/05/30 07:00:43;;;;;;;5.88;3.95;;;;;;;;;;5004951;23;20043;-79
2023/05/30 07:03:08;;;;;;;4.47;3.72;;;;;;;;;;4999443;28;20033;-81
2023/05/30 07:05:34;;;;;;;5.80;3.80;;;;;;;;;;4999453;28;20037;-80
2023/05/30 07:07:59;;;;;;;5.75;4.07;;;;;;;;;;4997820;28;20058;-80
2023/05/30 07:10:25;;;;;;;10.57;4.60;;;;;;;;;;4998223;28;20069;-80
2023/05/30 07:12:52;;;;;;;6.43;3.88;;;;;;;;;;4997776;28;20038;-79
2023/05/30 07:15:17;;;;;;;6.70;4.03;;;;;;;;;;4997568;28;20022;-80
2023/05/30 07:17:43;;;;;;;10.75;4.13;;;;;;;;;;4999360;28;20527;-81
2023/05/30 07:20:08;;;;;;;7.20;4.45;;;;;;;;;;4997498;28;20037;-81
2023/05/30 07:22:34;;;;;;;6.70;4.22;;;;;;;;;;4997891;28;20061;-78
2023/05/30 07:24:59;;;;;;;8.27;4.55;;;;;;;;;;4999387;28;20035;-80
2023/05/30 07:27:24;;;;;;;9.75;3.67;;;;;;;;;;4997981;28;20034;-80
2023/05/30 07:29:50;;;;;;;6.35;4.10;;;;;;;;;;4998699;28;20034;-79
2023/05/30 07:32:15;;;;;;;7.35;3.90;;;;;;;;;;5000062;28;20070;-80
2023/05/30 07:34:41;;;;;;;6.20;3.70;;;;;;;;;;4998278;28;20026;-81
2023/05/30 07:37:07;;;;;;;13.68;4.25;;;;;;;;;;4999457;28;20031;-81
2023/05/30 07:39:33;;;;;;;4.03;3.53;;;;;;;;;;4998171;28;20030;-80
2023/05/30 07:41:58;;;;;;;5.68;3.97;;;;;;;;;;4999735;28;20029;-81
2023/05/30 07:44:23;;;;;;;5.35;3.80;;;;;;;;;;4998175;28;20117;-81
2023/05/30 07:46:49;;;;;;;8.98;3.90;;;;;;;;;;4999502;28;20116;-81
2023/05/30 07:49:14;;;;;;;7.57;3.80;;;;;;;;;;4999771;28;20038;-82
2023/05/30 07:51:39;;;;;;;8.57;3.63;;;;;;;;;;4998091;28;20042;-81
2023/05/30 07:54:05;;;;;;;4.68;3.30;;;;;;;;;;4999336;28;20030;-82
2023/05/30 07:56:31;;;;;;;4.97;3.75;;;;;;;;;;4999010;28;20022;-80
2023/05/30 07:58:56;;;;;;;6.75;3.60;;;;;;;;;;4998500;28;20038;-80
2023/05/30 08:01:22;;;;;;;6.55;3.75;;;;;;;;;;4999744;28;20054;-79
2023/05/30 08:03:47;;;;;;;4.32;3.58;;;;;;;;;;4997582;28;20097;-81
2023/05/30 08:06:12;;;;;;;12.60;4.28;;;;;;;;;;4998009;28;20033;-81
2023/05/30 08:08:37;;;;;;;5.28;3.67;;;;;;;;;;4998891;28;20129;-80
2023/05/30 08:11:03;;;;;;;6.30;3.50;;;;;;;;;;4999273;28;20490;-81
2023/05/30 08:13:28;;;;;;;5.53;3.70;;;;;;;;;;4998921;28;20034;-81
2023/05/30 08:15:54;;;;;;;5.97;3.88;;;;;;;;;;4998653;28;20034;-82
2023/05/30 08:18:21;;;;;;;6.28;3.70;;;;;;;;;;4997516;28;20022;-81
2023/05/30 08:20:46;;;;;;;5.35;3.67;;;;;;;;;;4999107;28;20026;-82
2023/05/30 08:23:12;;;;;;;7.03;4.00;;;;;;;;;;4997655;28;20167;-80
2023/05/30 08:25:42;;;;;;;10.00;4.55;;;;;;;;;;4996903;28;20034;-81
2023/05/30 08:28:08;;;;;;;5.30;3.75;;;;;;;;;;4997949;28;20058;-81
2023/05/30 08:30:33;;;;;;;9.18;4.18;;;;;;;;;;4997441;28;20038;-80
2023/05/30 08:32:58;;;;;;;15.70;4.45;;;;;;;;;;4999176;28;20404;-80
2023/05/30 08:35:24;;;;;;;8.35;4.40;;;;;;;;;;4996632;28;20117;-80
2023/05/30 08:37:49;;;;;;;7.50;4.40;;;;;;;;;;4997175;28;20413;-80
2023/05/30 08:40:15;;;;;;;7.15;4.30;;;;;;;;;;4997653;28;20030;-81
2023/05/30 08:42:42;;;;;;;8.63;4.55;;;;;;;;;;4996418;28;20400;-81
2023/05/30 08:45:08;;;;;;;7.18;4.10;;;;;;;;;;4997773;28;20109;-81
2023/05/30 08:47:33;;;;;;;5.90;4.05;;;;;;;;;;4997315;28;20519;-82
2023/05/30 08:50:02;;;;;;;7.57;4.40;;;;;;;;;;4997353;28;20041;-81
2023/05/30 08:52:29;;;;;;;6.90;4.15;;;;;;;;;;4999258;28;20034;-82
2023/05/30 08:55:07;;;;;;;6.22;3.90;;;;;;;;;;4998575;28;20035;-82
2023/05/30 08:57:57;;;;;;;5.88;4.00;;;;;;;;;;4999000;28;20039;-81
2023/05/30 09:00:23;;;;;;;6.28;4.47;;;;;;;;;;4993118;28;20042;-82
2023/05/30 09:02:55;;;;;;;10.27;4.30;;;;;;;;;;4982786;28;20038;-82
2023/05/30 09:05:21;;;;;;;8.40;4.20;;;;;;;;;;4994050;28;20071;-82
2023/05/30 09:07:47;;;;;;;6.10;3.90;;;;;;;;;;4997452;28;20585;-82
2023/05/30 09:10:14;;;;;;;6.97;4.03;;;;;;;;;;4995544;28;20063;-82
2023/05/30 09:12:41;;;;;;;5.32;3.97;;;;;;;;;;4998759;28;20038;-81
2023/05/30 09:15:07;;;;;;;9.30;3.92;;;;;;;;;;4986618;28;20081;-81
2023/05/30 09:17:33;;;;;;;5.57;4.05;;;;;;;;;;5009448;28;20022;-82
2023/05/30 09:19:58;;;;;;;7.88;4.05;;;;;;;;;;5020754;28;20043;-81
2023/05/30 09:22:26;;;;;;;12.57;4.18;;;;;;;;;;5006699;28;20051;-83
2023/05/30 09:25:00;;;;;;;5.88;4.30;;;;;;;;;;4989180;28;20035;-82
2023/05/30 09:27:27;;;;;;;9.27;4.38;;;;;;;;;;5001872;28;20413;-82
2023/05/30 09:29:53;;;;;;;5.80;4.07;;;;;;;;;;4992552;28;20026;-81
2023/05/30 09:32:20;;;;;;;6.80;4.10;;;;;;;;;;5010730;28;20042;-82
2023/05/30 09:34:56;;;;;;;7.78;4.18;;;;;;;;;;4992286;28;20121;-81
2023/05/30 09:37:25;;;;;;;7.45;4.20;;;;;;;;;;5007119;28;20031;-81
2023/05/30 09:40:06;;;;;;;6.97;4.50;;;;;;;;;;4993633;28;20031;-81
2023/05/30 09:42:49;;;;;;;8.27;4.20;;;;;;;;;;4999267;28;20044;-81
2023/05/30 09:45:16;;;;;;;7.45;4.53;;;;;;;;;;4987849;28;20033;-81
2023/05/30 09:47:42;;;;;;;7.57;4.28;;;;;;;;;;4988631;28;20485;-80
2023/05/30 09:50:09;;;;;;;8.20;4.30;;;;;;;;;;4995581;28;20035;-79
2023/05/30 09:52:35;;;;;;;9.65;4.25;;;;;;;;;;4998121;28;20034;-81
2023/05/30 09:55:06;;;;;;;7.40;4.03;;;;;;;;;;4997671;28;20039;-81
2023/05/30 09:57:46;;;;;;;6.80;4.40;;;;;;;;;;4997573;28;20038;-81
2023/05/30 10:00:13;;;;;;;5.00;3.55;;;;;;;;;;4997178;28;20026;-81
2023/05/30 10:02:40;;;;;;;6.90;3.92;;;;;;;;;;4988324;28;20023;-80
2023/05/30 10:05:16;;;;;;;11.20;3.72;;;;;;;;;;4989889;28;20106;-81
2023/05/30 10:07:41;;;;;;;6.82;3.95;;;;;;;;;;4993495;28;20061;-81
2023/05/30 10:10:07;;;;;;;7.90;4.10;;;;;;;;;;4996267;28;20039;-81
2023/05/30 10:12:33;;;;;;;7.40;3.53;;;;;;;;;;5006242;28;20040;-81
2023/05/30 10:14:58;;;;;;;8.00;4.03;;;;;;;;;;5008104;28;20389;-81
2023/05/30 10:17:27;;;;;;;10.45;4.30;;;;;;;;;;4995163;28;20035;-81
2023/05/30 10:20:02;;;;;;;7.50;3.35;;;;;;;;;;4993174;28;20088;-81
2023/05/30 10:22:35;;;;;;;6.38;3.67;;;;;;;;;;4998991;28;20042;-81
2023/05/30 10:25:02;;;;;;;12.57;3.70;;;;;;;;;;4996010;28;20039;-81
2023/05/30 10:27:31;;;;;;;4.72;3.50;;;;;;;;;;4997455;28;20088;-81
2023/05/30 10:30:07;;;;;;;5.93;3.72;;;;;;;;;;4994387;28;20025;-81
2023/05/30 10:32:36;;;;;;;4.97;3.40;;;;;;;;;;5012783;28;20533;-81
2023/05/30 10:35:11;;;;;;;4.47;3.60;;;;;;;;;;4997387;28;20524;-80
2023/05/30 10:37:37;;;;;;;4.30;3.33;;;;;;;;;;4992136;28;20070;-80
2023/05/30 10:40:15;;;;;;;6.18;3.83;;;;;;;;;;4995631;28;20413;-80
2023/05/30 10:42:41;;;;;;;6.78;3.78;;;;;;;;;;5009676;28;20094;-80
2023/05/30 10:45:22;;;;;;;6.28;3.70;;;;;;;;;;4982290;28;20030;-81
2023/05/30 10:48:02;;;;;;;5.63;3.90;;;;;;;;;;4995594;28;20030;-81
2023/05/30 10:50:37;;;;;;;11.77;4.10;;;;;;;;;;4989968;28;20085;-81
2023/05/30 10:53:12;;;;;;;8.95;3.53;;;;;;;;;;4995863;28;20444;-81
2023/05/30 10:55:37;;;;;;;7.90;3.70;;;;;;;;;;4991792;28;20102;-81
2023/05/30 10:58:37;;;;;;;6.45;3.75;;;;;;;;;;4997433;28;20523;-82
2023/05/30 11:01:24;;;;;;;5.03;3.60;;;;;;;;;;4979549;28;20039;-82
2023/05/30 11:03:57;;;;;;;8.27;4.10;;;;;;;;;;4978089;28;20507;-81
2023/05/30 11:06:25;;;;;;;8.53;3.97;;;;;;;;;;4978227;28;20049;-82
2023/05/30 11:08:52;;;;;;;5.70;3.90;;;;;;;;;;5000759;28;20559;-81
2023/05/30 11:11:19;;;;;;;7.65;4.00;;;;;;;;;;4996858;28;20036;-81
2023/05/30 11:13:47;;;;;;;13.77;4.40;;;;;;;;;;4998328;28;20058;-81
2023/05/30 11:16:23;;;;;;;7.50;3.97;;;;;;;;;;5014594;28;20034;-82
2023/05/30 11:18:50;;;;;;;8.70;3.83;;;;;;;;;;4998318;28;20138;-81
2023/05/30 11:21:15;;;;;;;6.47;3.17;;;;;;;;;;5014332;28;20034;-82
2023/05/30 11:23:59;;;;;;;8.98;4.05;;;;;;;;;;4999197;28;20038;-81
2023/05/30 11:26:55;;;;;;;7.88;3.42;;;;;;;;;;4993786;28;20386;-80
2023/05/30 11:29:44;;;;;;;7.80;4.13;;;;;;;;;;4977975;28;20033;-82
2023/05/30 11:32:11;;;;;;;5.88;3.38;;;;;;;;;;5033323;28;20026;-81
2023/05/30 11:34:37;;;;;;;5.18;3.40;;;;;;;;;;5026390;28;20035;-82
2023/05/30 11:37:04;;;;;;;6.75;3.45;;;;;;;;;;5012991;28;20027;-82
2023/05/30 11:39:36;;;;;;;3.55;3.13;;;;;;;;;;5013846;28;20094;-82
2023/05/30 11:42:03;;;;;;;8.10;3.55;;;;;;;;;;5013578;28;20036;-82
2023/05/30 11:44:31;;;;;;;9.18;3.10;;;;;;;;;;5013903;28;20038;-82
2023/05/30 11:47:07;;;;;;;4.45;3.10;;;;;;;;;;4996557;28;20527;-82
2023/05/30 11:49:33;;;;;;;6.40;3.70;;;;;;;;;;4997269;28;20062;-81
2023/05/30 11:51:59;;;;;;;10.55;3.63;;;;;;;;;;4996997;28;20592;-82
2023/05/30 11:54:26;;;;;;;17.48;4.07;;;;;;;;;;4997381;28;20073;-81
2023/05/30 11:56:51;;;;;;;5.63;3.17;;;;;;;;;;4998723;28;20081;-82
2023/05/30 11:59:21;;;;;;;5.25;3.17;;;;;;;;;;4996584;28;20515;-81
2023/05/30 12:02:04;;;;;;;5.68;3.47;;;;;;;;;;4997052;28;20555;-82
2023/05/30 12:04:31;;;;;;;6.00;3.70;;;;;;;;;;4997624;28;20034;-82
2023/05/30 12:06:59;;;;;;;7.43;3.35;;;;;;;;;;4995887;28;20026;-82
2023/05/30 12:09:24;;;;;;;4.47;3.10;;;;;;;;;;4997388;28;20101;-82
2023/05/30 12:11:57;;;;;;;7.05;3.42;;;;;;;;;;4995987;28;20049;-81
2023/05/30 12:14:30;;;;;;;7.07;3.20;;;;;;;;;;5012273;28;20034;-82
2023/05/30 12:16:56;;;;;;;5.47;3.67;;;;;;;;;;5012019;28;20033;-82
2023/05/30 12:19:27;;;;;;;7.72;3.35;;;;;;;;;;5012104;28;20042;-82
2023/05/30 12:21:53;;;;;;;9.80;3.15;;;;;;;;;;5012087;28;20121;-81
2023/05/30 12:24:22;;;;;;;8.25;3.28;;;;;;;;;;5011832;28;20018;-82
2023/05/30 12:26:48;;;;;;;4.35;3.28;;;;;;;;;;4996019;28;20161;-82
2023/05/30 12:29:13;;;;;;;7.07;3.25;;;;;;;;;;5012463;28;20030;-82
2023/05/30 12:31:39;;;;;;;3.50;2.83;;;;;;;;;;5011703;28;20061;-81
2023/05/30 12:34:04;;;;;;;4.00;2.90;;;;;;;;;;4996883;28;20089;-81
2023/05/30 12:36:30;;;;;;;3.58;3.28;;;;;;;;;;5012022;28;20401;-81
2023/05/30 12:38:56;;;;;;;7.63;3.22;;;;;;;;;;5012598;28;20018;-82
2023/05/30 12:41:31;;;;;;;4.80;2.75;;;;;;;;;;5012145;28;20043;-82
2023/05/30 12:43:57;;;;;;;5.13;3.20;;;;;;;;;;4996922;28;20447;-82
2023/05/30 12:46:26;;;;;;;5.07;3.45;;;;;;;;;;5011614;28;20039;-80
2023/05/30 12:48:51;;;;;;;4.82;3.05;;;;;;;;;;5011406;28;20520;-80
2023/05/30 12:51:17;;;;;;;4.57;3.47;;;;;;;;;;5011806;28;20029;-81
2023/05/30 12:53:42;;;;;;;7.38;3.20;;;;;;;;;;5012255;28;20030;-81
2023/05/30 12:56:07;;;;;;;9.02;4.43;;;;;;;;;;4997297;28;20045;-81
2023/05/30 12:58:35;;;;;;;7.55;2.90;;;;;;;;;;5011440;28;20070;-82
2023/05/30 13:01:00;;;;;;;4.55;3.20;;;;;;;;;;4997336;28;20042;-81
2023/05/30 13:03:26;;;;;;;3.38;2.78;;;;;;;;;;5012900;28;20053;-81
2023/05/30 13:05:51;;;;;;;8.13;3.00;;;;;;;;;;5012704;28;20038;-80
2023/05/30 13:08:16;;;;;;;9.00;3.63;;;;;;;;;;5017036;28;20053;-81
2023/05/30 13:10:42;;;;;;;5.90;3.08;;;;;;;;;;4993402;28;20050;-80
2023/05/30 13:13:07;;;;;;;7.80;3.25;;;;;;;;;;4997562;28;20031;-79
2023/05/30 13:15:33;;;;;;;12.02;3.08;;;;;;;;;;4998196;28;20124;-78
2023/05/30 13:17:58;;;;;;;8.75;3.72;;;;;;;;;;5002433;28;20033;-79
2023/05/30 13:20:23;;;;;;;11.07;3.17;;;;;;;;;;5020777;28;20045;-79
2023/05/30 13:22:49;;;;;;;3.55;2.80;;;;;;;;;;5020160;28;20086;-78
2023/05/30 13:25:14;;;;;;;4.60;2.95;;;;;;;;;;5002151;28;20034;-78
2023/05/30 13:27:39;;;;;;;4.00;3.15;;;;;;;;;;5002808;28;20058;-78
2023/05/30 13:30:06;;;;;;;7.40;3.10;;;;;;;;;;5004674;28;20026;-79
2023/05/30 13:32:31;;;;;;;4.13;3.20;;;;;;;;;;5009747;28;20035;-78
2023/05/30 13:34:56;;;;;;;3.50;2.92;;;;;;;;;;4999979;28;20038;-79
2023/05/30 13:37:22;;;;;;;4.60;3.10;;;;;;;;;;4991062;28;20033;-78
2023/05/30 13:39:47;;;;;;;6.00;3.40;;;;;;;;;;4992948;28;20035;-78
2023/05/30 13:42:12;;;;;;;6.00;3.13;;;;;;;;;;4993801;28;20382;-79
2023/05/30 13:44:38;;;;;;;8.45;3.47;;;;;;;;;;4985753;28;20023;-78
2023/05/30 13:47:03;;;;;;;3.78;3.20;;;;;;;;;;4996852;28;20031;-78
2023/05/30 13:49:32;;;;;;;5.60;2.92;;;;;;;;;;4987822;28;20031;-79
2023/05/30 13:51:59;;;;;;;8.77;3.30;;;;;;;;;;4995825;28;20046;-80
2023/05/30 13:54:25;;;;;;;3.30;2.70;;;;;;;;;;4985754;28;20151;-79
2023/05/30 13:56:50;;;;;;;6.68;3.72;;;;;;;;;;4991727;28;20520;-79
2023/05/30 13:59:15;;;;;;;3.60;3.30;;;;;;;;;;4997245;28;20023;-79
2023/05/30 14:01:41;;;;;;;3.35;3.05;;;;;;;;;;4991143;28;20046;-79
2023/05/30 14:04:07;;;;;;;8.57;3.28;;;;;;;;;;4989603;28;20030;-79
2023/05/30 14:06:32;;;;;;;3.55;2.97;;;;;;;;;;4998634;28;20049;-79
2023/05/30 14:08:58;;;;;;;12.93;3.38;;;;;;;;;;5008723;28;20027;-78
2023/05/30 14:11:23;;;;;;;6.05;3.45;;;;;;;;;;5009406;28;20089;-78
2023/05/30 14:13:49;;;;;;;3.10;2.80;;;;;;;;;;4993106;28;20058;-79
2023/05/30 14:16:14;;;;;;;7.35;3.20;;;;;;;;;;4999352;28;20035;-79
2023/05/30 14:18:44;;;;;;;5.20;2.95;;;;;;;;;;5006568;28;20081;-79
2023/05/30 14:21:10;;;;;;;7.80;3.20;;;;;;;;;;4981110;28;20440;-79
2023/05/30 14:23:35;;;;;;;13.80;2.90;;;;;;;;;;4988898;28;20117;-79
2023/05/30 14:26:01;;;;;;;12.80;2.70;;;;;;;;;;4984580;28;20042;-78
2023/05/30 14:28:26;;;;;;;5.25;2.92;;;;;;;;;;4988289;28;20051;-78
2023/05/30 14:30:52;;;;;;;7.93;3.20;;;;;;;;;;4988702;28;20031;-79
2023/05/30 14:33:17;;;;;;;6.35;3.92;;;;;;;;;;4988000;28;20028;-79
2023/05/30 14:35:42;;;;;;;3.45;2.90;;;;;;;;;;4993747;28;20027;-79
2023/05/30 14:38:08;;;;;;;9.68;3.03;;;;;;;;;;4995396;28;20037;-79
2023/05/30 14:40:33;;;;;;;4.45;3.03;;;;;;;;;;5009211;28;20037;-78
2023/05/30 14:42:59;;;;;;;5.40;3.38;;;;;;;;;;4995762;28;20508;-79